createdAt,value
2022-09-05T00:01:48.722Z,39.04
2022-09-05T00:04:25.751Z,39.25
2022-09-05T00:07:03.959Z,39.43
2022-09-05T00:09:56.283Z,39.36
2022-09-05T00:12:25.773Z,39.39
2022-09-05T00:15:19.285Z,39.32
2022-09-05T00:19:27.032Z,39.43
2022-09-05T00:24:35.188Z,39.43
2022-09-05T00:24:37.160Z,39.43
2022-09-05T00:27:00.371Z,39.46
2022-09-05T00:31:05.655Z,39.38
2022-09-05T00:32:44.799Z,39.34
2022-09-05T00:35:30.943Z,39.72
2022-09-05T00:38:13.142Z,39.51
2022-09-05T00:40:44.109Z,39.50
2022-09-05T00:43:15.909Z,39.62
2022-09-05T00:45:48.902Z,39.81
2022-09-05T00:48:26.247Z,39.53
2022-09-05T00:51:20.999Z,39.56
2022-09-05T00:54:34.196Z,39.72
2022-09-05T00:57:33.226Z,39.71
2022-09-05T01:00:16.442Z,39.85
2022-09-05T01:03:09.770Z,39.71
2022-09-05T01:05:49.623Z,39.77
2022-09-05T01:08:32.241Z,39.72
2022-09-05T01:11:10.089Z,40.04
2022-09-05T01:13:46.622Z,39.87
2022-09-05T01:16:24.177Z,39.85
2022-09-05T01:19:05.717Z,39.86
2022-09-05T01:21:50.739Z,40.03
2022-09-05T01:24:54.678Z,40.06
2022-09-05T01:29:13.419Z,39.99
2022-09-05T01:30:44.206Z,40.14
2022-09-05T01:33:24.131Z,40.13
2022-09-05T01:36:11.377Z,40.16
2022-09-05T01:38:57.992Z,40.13
2022-09-05T01:41:47.192Z,40.35
2022-09-05T01:44:42.306Z,40.33
2022-09-05T01:47:35.448Z,40.33
2022-09-05T01:50:14.169Z,40.55
2022-09-05T01:52:57.644Z,40.49
2022-09-05T01:56:04.046Z,40.48
2022-09-05T01:58:38.406Z,40.71
2022-09-05T02:01:31.611Z,40.74
2022-09-05T02:04:19.373Z,40.88
2022-09-05T02:07:19.842Z,41.04
2022-09-05T02:10:07.227Z,40.99
2022-09-05T02:12:43.147Z,41.20
2022-09-05T02:15:19.088Z,41.07
2022-09-05T02:17:54.858Z,41.23
2022-09-05T02:20:27.860Z,41.36
2022-09-05T02:23:04.459Z,41.36
2022-09-05T02:26:02.983Z,41.37
2022-09-05T02:28:38.178Z,41.45
2022-09-05T02:31:19.849Z,41.66
2022-09-05T02:34:01.786Z,41.49
2022-09-05T02:36:39.487Z,41.55
2022-09-05T02:45:00.100Z,41.55
2022-09-05T02:45:17.256Z,41.58
2022-09-05T02:45:28.875Z,41.73
2022-09-05T02:48:15.512Z,41.97
2022-09-05T02:57:26.265Z,41.99
2022-09-05T02:57:28.534Z,41.93
2022-09-05T02:57:40.244Z,41.95
2022-09-05T02:59:49.947Z,42.05
2022-09-05T03:02:28.024Z,42.00
2022-09-05T03:05:04.706Z,41.95
2022-09-05T03:07:54.820Z,42.00
2022-09-05T03:11:01.092Z,42.03
2022-09-05T03:14:10.834Z,42.23
2022-09-05T03:17:16.335Z,42.25
2022-09-05T03:20:14.337Z,42.33
2022-09-05T03:23:02.404Z,42.33
2022-09-05T03:26:08.879Z,42.46
2022-09-05T03:29:10.538Z,42.65
2022-09-05T03:32:00.791Z,42.77
2022-09-05T03:35:25.691Z,42.73
2022-09-05T03:38:21.646Z,42.89
2022-09-05T03:41:17.479Z,42.89
2022-09-05T03:44:21.089Z,42.93
2022-09-05T03:47:28.183Z,42.93
2022-09-05T03:53:40.762Z,43.08
2022-09-05T03:57:10.635Z,43.42
2022-09-05T03:57:11.910Z,43.32
2022-09-05T03:59:52.945Z,43.40
2022-09-05T04:08:05.844Z,43.53
2022-09-05T04:08:19.114Z,43.69
2022-09-05T04:08:32.046Z,43.68
2022-09-05T04:11:05.623Z,43.60
2022-09-05T04:13:39.146Z,43.64
2022-09-05T04:16:13.052Z,43.74
2022-09-05T04:18:45.229Z,43.59
2022-09-05T04:21:17.743Z,43.66
2022-09-05T04:24:03.082Z,43.55
2022-09-05T04:27:00.814Z,43.48
2022-09-05T04:29:40.947Z,43.74
2022-09-05T04:32:20.181Z,43.60
2022-09-05T04:35:07.401Z,43.67
2022-09-05T04:37:48.067Z,43.77
2022-09-05T04:40:47.098Z,43.76
2022-09-05T04:43:25.522Z,43.72
2022-09-05T04:45:57.041Z,44.03
2022-09-05T04:48:29.266Z,43.91
2022-09-05T04:51:07.986Z,43.83
2022-09-05T04:54:12.676Z,43.90
2022-09-05T04:56:46.257Z,44.07
2022-09-05T05:03:29.942Z,44.03
2022-09-05T05:06:00.597Z,44.18
2022-09-05T05:06:19.742Z,44.16
2022-09-05T05:08:04.470Z,44.23
2022-09-05T05:16:37.419Z,43.95
2022-09-05T05:18:01.974Z,43.95
2022-09-05T05:18:06.878Z,44.06
2022-09-05T05:19:21.923Z,43.99
2022-09-05T05:21:53.427Z,44.06
2022-09-05T05:24:24.265Z,43.93
2022-09-05T05:26:56.726Z,43.90
2022-09-05T05:29:32.355Z,43.92
2022-09-05T05:32:04.170Z,44.06
2022-09-05T05:34:38.001Z,44.25
2022-09-05T05:37:15.624Z,44.14
2022-09-05T05:39:49.297Z,44.27
2022-09-05T05:42:21.613Z,44.11
2022-09-05T05:44:53.833Z,44.16
2022-09-05T05:47:32.258Z,44.09
2022-09-05T05:50:04.675Z,44.32
2022-09-05T05:52:52.159Z,44.20
2022-09-05T05:55:52.424Z,44.14
2022-09-05T05:59:00.176Z,44.06
2022-09-05T06:02:04.689Z,44.09
2022-09-05T06:05:04.151Z,44.01
2022-09-05T06:11:07.421Z,43.90
2022-09-05T06:14:55.862Z,44.07
2022-09-05T06:14:59.697Z,44.13
2022-09-05T06:17:31.909Z,44.10
2022-09-05T06:22:11.118Z,43.94
2022-09-05T06:23:51.986Z,44.05
2022-09-05T06:26:58.219Z,44.24
2022-09-05T06:29:38.657Z,44.24
2022-09-05T06:32:26.699Z,44.44
2022-09-05T06:35:05.354Z,44.54
2022-09-05T06:37:44.907Z,44.52
2022-09-05T06:40:20.650Z,44.45
2022-09-05T06:43:11.058Z,44.26
2022-09-05T06:45:59.012Z,44.07
2022-09-05T06:48:44.791Z,44.14
2022-09-05T06:51:45.210Z,44.06
2022-09-05T06:54:48.564Z,43.64
2022-09-05T06:57:59.381Z,43.74
2022-09-05T07:00:34.333Z,44.14
2022-09-05T07:03:24.141Z,43.91
2022-09-05T07:05:57.485Z,43.85
2022-09-05T07:08:37.324Z,43.57
2022-09-05T07:11:16.581Z,43.15
2022-09-05T07:13:57.692Z,43.70
2022-09-05T07:16:38.940Z,43.39
2022-09-05T07:19:27.167Z,43.11
2022-09-05T07:22:46.450Z,43.41
2022-09-05T07:25:18.255Z,42.81
2022-09-05T07:28:28.950Z,43.52
2022-09-05T07:30:49.162Z,42.72
2022-09-05T07:33:20.811Z,41.49
2022-09-05T07:35:50.649Z,40.97
2022-09-05T07:38:22.282Z,40.46
2022-09-05T07:40:59.667Z,40.34
2022-09-05T07:43:33.530Z,39.14
2022-09-05T07:46:11.773Z,39.01
2022-09-05T07:48:44.467Z,38.54
2022-09-05T07:56:49.315Z,38.71
2022-09-05T07:57:03.848Z,38.26
2022-09-05T08:00:04.685Z,37.97
2022-09-05T08:02:46.996Z,37.46
2022-09-05T08:05:20.829Z,37.64
2022-09-05T08:08:04.761Z,37.03
2022-09-05T08:11:25.783Z,36.79
2022-09-05T08:13:29.957Z,36.92
2022-09-05T08:16:10.187Z,37.79
2022-09-05T08:18:46.381Z,37.11
2022-09-05T08:21:27.203Z,37.59
2022-09-05T08:24:13.354Z,36.66
2022-09-05T08:26:47.206Z,37.33
2022-09-05T08:29:27.460Z,35.61
2022-09-05T08:32:02.855Z,35.92
2022-09-05T08:34:44.655Z,35.68
2022-09-05T08:37:15.193Z,36.15
2022-09-05T08:40:11.129Z,35.62
2022-09-05T08:42:58.767Z,36.27
2022-09-05T08:46:42.370Z,36.11
2022-09-05T08:49:12.505Z,35.55
2022-09-05T08:51:55.427Z,34.37
2022-09-05T08:54:32.989Z,32.97
2022-09-05T08:57:11.213Z,33.99
2022-09-05T09:00:02.697Z,33.63
2022-09-05T09:03:05.126Z,32.58
2022-09-05T09:06:14.382Z,33.12
2022-09-05T09:08:56.254Z,33.33
2022-09-05T09:11:31.558Z,32.88
2022-09-05T09:14:31.176Z,32.77
2022-09-05T09:17:06.931Z,32.68
2022-09-05T09:19:47.724Z,31.67
2022-09-05T09:22:28.602Z,31.58
2022-09-05T09:25:14.375Z,32.21
2022-09-05T09:28:49.856Z,30.99
2022-09-05T09:30:58.817Z,33.16
2022-09-05T09:33:38.121Z,32.44
2022-09-05T09:36:21.842Z,32.16
2022-09-05T09:39:25.985Z,31.32
2022-09-05T09:42:33.487Z,30.17
2022-09-05T09:45:29.614Z,30.92
2022-09-05T09:48:33.620Z,31.57
2022-09-05T09:51:19.845Z,31.33
2022-09-05T09:54:01.201Z,32.23
2022-09-05T09:57:20.779Z,31.10
2022-09-05T10:00:08.180Z,29.64
2022-09-05T10:06:52.509Z,30.50
2022-09-05T10:10:45.727Z,28.79
2022-09-05T10:11:00.443Z,29.30
2022-09-05T10:13:15.025Z,27.15
2022-09-05T10:16:23.461Z,28.32
2022-09-05T10:19:11.077Z,27.77
2022-09-05T10:25:23.927Z,26.27
2022-09-05T10:28:06.125Z,25.07
2022-09-05T10:32:16.309Z,25.65
2022-09-05T10:35:18.285Z,26.12
2022-09-05T10:37:36.512Z,25.74
2022-09-05T10:40:12.451Z,25.97
2022-09-05T10:42:59.730Z,24.57
2022-09-05T10:45:38.902Z,25.62
2022-09-05T10:48:14.109Z,24.94
2022-09-05T10:50:47.229Z,24.44
2022-09-05T10:53:39.786Z,25.27
2022-09-05T10:56:26.167Z,27.04
2022-09-05T11:01:31.008Z,27.34
2022-09-05T11:02:21.458Z,25.93
2022-09-05T11:05:34.032Z,26.48
2022-09-05T11:08:14.460Z,26.18
2022-09-05T11:10:50.256Z,26.29
2022-09-05T11:13:46.987Z,27.65
2022-09-05T11:16:40.264Z,27.93
2022-09-05T11:19:22.295Z,27.31
2022-09-05T11:22:03.973Z,27.36
2022-09-05T11:24:50.822Z,25.68
2022-09-05T11:27:30.905Z,26.27
2022-09-05T11:30:05.946Z,26.84
2022-09-05T11:36:29.664Z,26.33
2022-09-05T11:39:57.508Z,26.64
2022-09-05T11:40:06.815Z,24.77
2022-09-05T11:42:31.437Z,24.73
2022-09-05T11:45:22.089Z,23.54
2022-09-05T11:48:20.314Z,24.80
2022-09-05T11:51:33.591Z,24.96
2022-09-05T11:54:22.533Z,24.78
2022-09-05T11:57:32.841Z,23.56
2022-09-05T12:00:31.666Z,24.00
2022-09-05T12:03:59.627Z,23.69
2022-09-05T12:06:57.390Z,22.82
2022-09-05T12:09:43.166Z,21.37
2022-09-05T12:12:38.981Z,21.37
2022-09-05T12:15:25.443Z,21.06
2022-09-05T12:18:19.014Z,19.95
2022-09-05T12:20:57.042Z,21.18
2022-09-05T12:24:13.541Z,20.40
2022-09-05T12:27:36.510Z,20.52
2022-09-05T12:29:32.841Z,21.60
2022-09-05T12:33:32.272Z,22.14
2022-09-05T12:36:12.861Z,21.40
2022-09-05T12:40:56.746Z,21.34
2022-09-05T12:41:42.656Z,19.98
2022-09-05T12:44:39.567Z,20.08
2022-09-05T12:46:45.738Z,20.27
2022-09-05T12:49:35.089Z,20.07
2022-09-05T12:52:06.756Z,21.13
2022-09-05T12:54:42.741Z,21.32
2022-09-05T13:00:13.889Z,21.19
2022-09-05T13:03:01.347Z,21.52
2022-09-05T13:03:28.338Z,19.34
2022-09-05T13:06:00.559Z,20.48
2022-09-05T13:08:43.978Z,21.48
2022-09-05T13:15:02.310Z,21.34
2022-09-05T13:15:03.211Z,20.54
2022-09-05T13:17:00.099Z,21.81
2022-09-05T13:19:34.540Z,21.63
2022-09-05T13:22:06.209Z,22.17
2022-09-05T13:24:41.440Z,21.77
2022-09-05T13:27:14.842Z,22.47
2022-09-05T13:31:23.267Z,21.56
2022-09-05T13:37:55.135Z,21.48
2022-09-05T13:38:08.168Z,21.65
2022-09-05T13:38:49.350Z,20.92
2022-09-05T13:41:26.919Z,21.92
2022-09-05T13:44:00.186Z,21.88
2022-09-05T13:46:58.626Z,22.25
2022-09-05T13:49:33.300Z,22.75
2022-09-05T13:52:25.894Z,22.32
2022-09-05T13:55:07.398Z,22.24
2022-09-05T13:57:39.586Z,21.95
2022-09-05T14:00:42.879Z,21.14
2022-09-05T14:03:47.206Z,22.27
2022-09-05T14:06:47.517Z,22.06
2022-09-05T14:09:38.248Z,21.96
2022-09-05T14:12:25.478Z,22.05
2022-09-05T14:15:09.248Z,22.27
2022-09-05T14:17:59.490Z,22.19
2022-09-05T14:20:49.910Z,21.85
2022-09-05T14:23:21.015Z,21.38
2022-09-05T14:25:54.768Z,21.78
2022-09-05T14:28:28.902Z,22.58
2022-09-05T14:37:34.079Z,22.72
2022-09-05T14:37:45.202Z,22.15
2022-09-05T14:37:49.517Z,22.39
2022-09-05T14:40:44.575Z,21.91
2022-09-05T14:43:52.560Z,21.31
2022-09-05T14:46:39.466Z,21.11
2022-09-05T14:49:22.306Z,21.15
2022-09-05T14:51:53.460Z,21.60
2022-09-05T15:02:39.789Z,21.38
2022-09-05T15:02:51.878Z,21.73
2022-09-05T15:03:05.088Z,22.07
2022-09-05T15:05:41.310Z,21.57
2022-09-05T15:08:45.990Z,22.14
2022-09-05T15:12:20.852Z,22.56
2022-09-05T15:13:58.350Z,22.43
2022-09-05T15:16:28.951Z,22.18
2022-09-05T15:18:58.675Z,22.80
2022-09-05T15:21:34.447Z,21.89
2022-09-05T15:24:14.970Z,22.05
2022-09-05T15:26:52.583Z,23.05
2022-09-05T15:29:24.989Z,22.49
2022-09-05T15:32:12.275Z,22.72
2022-09-05T15:34:40.967Z,23.72
2022-09-05T15:37:27.837Z,22.85
2022-09-05T15:40:21.816Z,22.66
2022-09-05T15:42:55.240Z,22.60
2022-09-05T15:45:27.940Z,22.48
2022-09-05T15:48:12.512Z,23.76
2022-09-05T15:50:46.141Z,23.11
2022-09-05T15:53:24.167Z,22.78
2022-09-05T15:56:00.902Z,22.83
2022-09-05T15:58:52.810Z,23.30
2022-09-05T16:01:30.525Z,22.79
2022-09-05T16:08:49.429Z,22.99
2022-09-05T16:10:36.097Z,23.04
2022-09-05T16:10:48.807Z,22.56
2022-09-05T16:12:46.037Z,22.92
2022-09-05T16:16:12.267Z,24.10
2022-09-05T16:23:28.983Z,23.72
2022-09-05T16:23:34.270Z,23.43
2022-09-05T16:24:04.180Z,23.34
2022-09-05T16:26:40.128Z,23.82
2022-09-05T16:29:19.476Z,23.59
2022-09-05T16:31:56.068Z,23.50
2022-09-05T16:34:32.053Z,23.89
2022-09-05T16:37:09.303Z,24.35
2022-09-05T16:39:41.643Z,25.68
2022-09-05T16:42:16.173Z,25.68
2022-09-05T16:44:50.697Z,25.25
2022-09-05T16:47:28.502Z,26.59
2022-09-05T16:50:04.350Z,26.42
2022-09-05T16:52:56.047Z,27.14
2022-09-05T16:55:32.865Z,27.46
2022-09-05T16:58:14.151Z,26.58
2022-09-05T17:00:51.873Z,27.08
2022-09-05T17:03:28.855Z,26.36
2022-09-05T17:06:07.769Z,26.90
2022-09-05T17:08:37.444Z,27.26
2022-09-05T17:11:29.290Z,27.74
2022-09-05T17:14:07.114Z,27.84
2022-09-05T17:16:40.640Z,28.15
2022-09-05T17:19:16.204Z,28.24
2022-09-05T17:26:35.230Z,28.32
2022-09-05T17:29:28.162Z,28.86
2022-09-05T17:29:37.836Z,28.53
2022-09-05T17:31:46.151Z,28.97
2022-09-05T17:33:46.665Z,29.14
2022-09-05T17:36:18.428Z,29.23
2022-09-05T17:39:08.423Z,29.64
2022-09-05T17:41:51.851Z,29.88
2022-09-05T17:44:25.885Z,29.87
2022-09-05T17:47:06.943Z,30.09
2022-09-05T17:49:46.743Z,30.35
2022-09-05T17:52:24.471Z,30.72
2022-09-05T17:54:55.108Z,31.06
2022-09-05T17:57:44.478Z,31.06
2022-09-05T18:00:47.309Z,31.33
2022-09-05T18:04:16.436Z,31.20
2022-09-05T18:06:59.320Z,31.60
2022-09-05T18:10:14.615Z,31.51
2022-09-05T18:13:31.319Z,31.90
2022-09-05T18:16:13.349Z,32.02
2022-09-05T18:19:28.842Z,32.66
2022-09-05T18:21:51.259Z,33.55
2022-09-05T18:24:33.267Z,34.73
2022-09-05T18:27:47.423Z,35.98
2022-09-05T18:30:08.138Z,36.17
2022-09-05T18:32:42.307Z,36.84
2022-09-05T18:35:29.281Z,37.30
2022-09-05T18:38:51.782Z,37.06
2022-09-05T18:41:22.066Z,37.82
2022-09-05T18:44:13.684Z,37.19
2022-09-05T18:46:50.978Z,37.63
2022-09-05T18:50:21.425Z,37.79
2022-09-05T18:52:23.378Z,37.69
2022-09-05T18:56:11.617Z,37.79
2022-09-05T18:57:49.617Z,37.12
2022-09-05T19:00:35.045Z,37.31
2022-09-05T19:03:25.210Z,36.46
2022-09-05T19:05:56.143Z,35.89
2022-09-05T19:08:49.394Z,35.80
2022-09-05T19:11:28.921Z,35.65
2022-09-05T19:14:25.350Z,35.61
2022-09-05T19:16:50.902Z,35.23
2022-09-05T19:19:24.419Z,34.99
2022-09-05T19:22:52.608Z,34.62
2022-09-05T19:24:46.561Z,34.55
2022-09-05T19:27:47.270Z,34.25
2022-09-05T19:36:58.096Z,34.01
2022-09-05T19:37:06.615Z,34.26
2022-09-05T19:37:14.647Z,34.21
2022-09-05T19:41:47.909Z,33.93
2022-09-05T19:46:00.761Z,34.04
2022-09-05T19:47:46.772Z,34.18
2022-09-05T19:47:55.699Z,34.16
2022-09-05T19:50:14.994Z,33.91
2022-09-05T19:52:46.211Z,33.82
2022-09-05T19:55:22.902Z,34.11
2022-09-05T19:58:18.537Z,34.20
2022-09-05T20:01:00.898Z,33.95
2022-09-05T20:03:38.609Z,34.18
2022-09-05T20:06:29.033Z,34.06
2022-09-05T20:09:14.369Z,33.96
2022-09-05T20:11:47.138Z,34.04
2022-09-05T20:14:26.634Z,33.89
2022-09-05T20:16:57.762Z,34.00
2022-09-05T20:19:33.005Z,34.15
2022-09-05T20:22:31.792Z,33.92
2022-09-05T20:24:59.064Z,34.02
2022-09-05T20:27:33.718Z,33.92
2022-09-05T20:30:06.072Z,34.02
2022-09-05T20:32:40.473Z,33.93
2022-09-05T20:40:37.199Z,33.92
2022-09-05T20:43:19.077Z,34.12
2022-09-05T20:43:23.649Z,33.97
2022-09-05T20:44:01.538Z,34.25
2022-09-05T20:48:16.650Z,34.12
2022-09-05T20:54:22.169Z,34.21
2022-09-05T20:54:28.193Z,34.13
2022-09-05T20:55:38.741Z,34.22
2022-09-05T20:58:11.472Z,34.41
2022-09-05T21:01:20.271Z,34.61
2022-09-05T21:03:38.063Z,34.80
2022-09-05T21:06:22.064Z,34.57
2022-09-05T21:08:51.650Z,34.79
2022-09-05T21:11:30.708Z,34.82
2022-09-05T21:14:02.535Z,35.05
2022-09-05T21:16:33.386Z,35.11
2022-09-05T21:19:01.586Z,35.15
2022-09-05T21:21:32.019Z,35.32
2022-09-05T21:24:16.076Z,35.47
2022-09-05T21:26:48.117Z,35.95
2022-09-05T21:29:32.843Z,35.75
2022-09-05T21:32:10.312Z,36.08
2022-09-05T21:34:45.462Z,36.15
2022-09-05T21:37:16.155Z,36.01
2022-09-05T21:39:59.822Z,36.06
2022-09-05T21:47:34.015Z,36.29
2022-09-05T21:47:37.539Z,36.50
2022-09-05T21:48:10.517Z,36.57
2022-09-05T21:50:45.238Z,36.73
2022-09-05T21:55:37.217Z,36.63
2022-09-05T21:59:18.402Z,36.82
2022-09-05T21:59:19.176Z,37.03
2022-09-05T22:01:58.909Z,37.00
2022-09-05T22:04:29.730Z,36.90
2022-09-05T22:07:02.943Z,36.92
2022-09-05T22:09:31.300Z,36.95
2022-09-05T22:12:00.201Z,37.15
2022-09-05T22:14:34.347Z,37.04
2022-09-05T22:17:05.129Z,37.07
2022-09-05T22:19:37.737Z,37.14
2022-09-05T22:22:16.418Z,37.22
2022-09-05T22:24:49.938Z,37.37
2022-09-05T22:27:20.074Z,37.31
2022-09-05T22:29:50.674Z,37.33
2022-09-05T22:32:34.085Z,37.31
2022-09-05T22:35:18.534Z,37.46
2022-09-05T22:37:59.509Z,37.50
2022-09-05T22:40:29.358Z,37.49
2022-09-05T22:42:58.328Z,37.60
2022-09-05T22:45:29.788Z,37.63
2022-09-05T22:47:59.473Z,37.66
2022-09-05T22:50:27.860Z,37.69
2022-09-05T22:52:56.005Z,37.72
2022-09-05T22:55:24.078Z,37.72
2022-09-05T22:57:52.137Z,37.86
2022-09-05T23:00:21.385Z,37.82
2022-09-05T23:02:56.871Z,37.75
2022-09-05T23:05:26.901Z,37.71
2022-09-05T23:07:58.630Z,37.73
2022-09-05T23:10:27.264Z,37.98
2022-09-05T23:12:55.546Z,37.85
2022-09-05T23:15:24.258Z,37.95
2022-09-05T23:17:55.887Z,37.99
2022-09-05T23:20:28.278Z,38.01
2022-09-05T23:23:07.734Z,38.07
2022-09-05T23:25:37.142Z,38.19
2022-09-05T23:28:09.675Z,38.25
2022-09-05T23:30:39.185Z,38.33
2022-09-05T23:33:09.463Z,38.17
2022-09-05T23:35:39.294Z,38.33
2022-09-05T23:38:11.028Z,38.36
2022-09-05T23:40:39.774Z,38.56
2022-09-05T23:43:08.532Z,38.57
2022-09-05T23:45:36.948Z,38.60
2022-09-05T23:48:05.699Z,38.79
2022-09-05T23:50:34.083Z,38.85
2022-09-05T23:53:05.491Z,38.84
2022-09-05T23:55:33.933Z,38.84
2022-09-05T23:58:02.336Z,39.04
